createdAt,value
2022-10-01T06:33:23.321Z,97990.72
2022-10-01T06:36:34.595Z,97987.16
2022-10-01T06:39:44.493Z,97980.25
2022-10-01T06:42:56.858Z,97995.84
2022-10-01T06:46:07.374Z,97996.59
2022-10-01T06:49:20.539Z,97993.84
2022-10-01T06:52:41.206Z,97982.63
2022-10-01T06:55:53.286Z,97967.91
2022-10-01T06:59:02.999Z,97978.88
2022-10-01T07:02:22.925Z,97965.44
2022-10-01T07:05:33.940Z,97978.38
2022-10-01T07:08:43.653Z,97983.00
2022-10-01T07:11:53.989Z,97994.03
2022-10-01T07:15:03.801Z,97976.28
2022-10-01T07:18:13.893Z,97974.41
2022-10-01T07:21:24.873Z,97976.09
2022-10-01T07:24:34.487Z,97987.22
2022-10-01T07:27:44.231Z,98000.34
2022-10-01T07:31:00.401Z,97995.53
2022-10-01T07:34:10.043Z,97979.66
2022-10-01T07:37:21.586Z,97999.59
2022-10-01T07:40:33.135Z,97990.72
2022-10-01T07:43:44.965Z,98006.09
2022-10-01T07:46:57.363Z,98001.59
2022-10-01T07:50:09.785Z,97989.94
2022-10-01T07:53:25.378Z,97988.03
2022-10-01T07:56:36.915Z,97992.88
2022-10-01T07:59:50.279Z,97969.59
2022-10-01T08:03:03.213Z,97957.16
2022-10-01T08:06:15.377Z,97969.38
2022-10-01T08:09:27.670Z,97976.69
2022-10-01T08:12:39.085Z,97980.19
2022-10-01T08:15:53.635Z,97973.75
2022-10-01T08:19:04.727Z,98020.25
2022-10-01T08:22:15.657Z,97992.31
2022-10-01T08:25:27.911Z,98010.38
2022-10-01T08:28:38.773Z,98001.06
2022-10-01T08:31:50.401Z,98024.25
2022-10-01T08:35:01.496Z,98019.25
2022-10-01T08:38:13.127Z,97986.75
2022-10-01T08:41:35.824Z,97989.59
2022-10-01T08:44:49.023Z,98007.97
2022-10-01T08:48:07.022Z,98001.97
2022-10-01T08:51:27.046Z,98007.13
2022-10-01T08:54:42.538Z,98006.22
2022-10-01T08:58:00.708Z,97995.25
2022-10-01T09:01:12.492Z,97993.84
2022-10-01T09:04:23.860Z,97999.53
2022-10-01T09:07:47.189Z,97993.53
2022-10-01T09:11:02.616Z,98002.59
2022-10-01T09:14:31.662Z,97998.69
2022-10-01T09:17:55.155Z,97999.56
2022-10-01T09:21:15.240Z,98004.56
2022-10-01T09:24:40.870Z,97996.97
2022-10-01T09:27:52.822Z,98001.56
2022-10-01T09:31:15.565Z,98002.63
2022-10-01T09:34:34.778Z,97990.34
2022-10-01T09:37:53.378Z,97989.88
2022-10-01T09:41:04.249Z,98004.31
2022-10-01T09:44:20.029Z,97985.09
2022-10-01T09:47:36.129Z,97990.31
2022-10-01T09:51:00.770Z,97989.81
2022-10-01T09:54:18.310Z,97991.75
2022-10-01T09:57:35.847Z,97994.19
2022-10-01T10:00:48.511Z,97998.00
2022-10-01T10:04:00.632Z,97999.69
2022-10-01T10:07:19.065Z,97996.38
2022-10-01T10:10:35.665Z,98009.78
2022-10-01T10:13:52.189Z,98006.28
2022-10-01T10:17:07.341Z,98015.91
2022-10-01T10:20:29.884Z,98014.78
2022-10-01T10:23:52.029Z,98026.47
2022-10-01T10:27:05.621Z,98019.94
2022-10-01T10:30:19.240Z,98030.78
2022-10-01T10:33:30.099Z,98037.56
2022-10-01T10:36:44.682Z,98039.19
2022-10-01T10:39:56.507Z,98039.94
2022-10-01T10:43:07.570Z,98054.81
2022-10-01T10:46:27.646Z,98056.88
2022-10-01T10:49:45.988Z,98063.91
2022-10-01T10:52:58.750Z,98069.75
2022-10-01T10:56:23.057Z,98075.88
2022-10-01T10:59:35.066Z,98078.63
2022-10-01T11:02:53.936Z,98070.72
2022-10-01T11:06:11.898Z,98077.78
2022-10-01T11:09:29.256Z,98066.03
2022-10-01T11:12:56.633Z,98060.56
2022-10-01T11:16:25.569Z,98055.38
2022-10-01T11:19:54.861Z,98066.84
2022-10-01T11:23:23.580Z,98059.31
2022-10-01T11:26:50.632Z,98069.97
2022-10-01T11:30:09.713Z,98075.72
2022-10-01T11:33:32.449Z,98076.78
2022-10-01T11:36:55.575Z,98079.94
2022-10-01T11:40:17.308Z,98088.66
2022-10-01T11:43:34.490Z,98092.75
2022-10-01T11:46:54.732Z,98102.81
2022-10-01T11:50:11.258Z,98106.19
2022-10-01T11:53:31.010Z,98105.09
2022-10-01T11:56:58.200Z,98108.75
2022-10-01T12:00:12.667Z,98112.97
2022-10-01T12:03:26.775Z,98118.41
2022-10-01T12:06:43.539Z,98105.47
2022-10-01T12:10:04.379Z,98108.00
2022-10-01T12:13:22.985Z,98100.88
2022-10-01T12:16:45.429Z,98096.56
2022-10-01T12:20:01.715Z,98095.53
2022-10-01T12:23:18.216Z,98089.44
2022-10-01T12:26:41.746Z,98091.41
2022-10-01T12:29:58.497Z,98097.31
2022-10-01T12:33:31.402Z,98084.88
2022-10-01T12:36:51.448Z,98093.84
2022-10-01T12:40:19.560Z,98090.13
2022-10-01T12:43:47.532Z,98101.69
2022-10-01T12:47:12.705Z,98096.94
2022-10-01T12:50:36.596Z,98106.91
2022-10-01T12:54:00.655Z,98109.91
2022-10-01T12:57:23.799Z,98102.78
2022-10-01T13:00:42.359Z,98109.22
2022-10-01T13:04:11.271Z,98118.03
2022-10-01T13:07:39.468Z,98114.97
2022-10-01T13:11:02.451Z,98118.22
2022-10-01T13:14:16.994Z,98113.50
2022-10-01T13:17:35.507Z,98111.16
2022-10-01T13:20:54.291Z,98103.75
2022-10-01T13:24:13.755Z,98098.38
2022-10-01T13:27:31.187Z,98100.69
2022-10-01T13:30:57.024Z,98110.72
2022-10-01T13:34:26.444Z,98108.31
2022-10-01T13:37:40.063Z,98118.16
2022-10-01T13:41:01.506Z,98122.06
2022-10-01T13:44:24.258Z,98114.84
2022-10-01T13:47:41.449Z,98126.91
2022-10-01T13:51:03.138Z,98117.06
2022-10-01T13:54:23.840Z,98136.41
2022-10-01T13:57:38.460Z,98139.06
2022-10-01T14:00:50.989Z,98137.03
2022-10-01T14:04:08.938Z,98141.50
2022-10-01T14:07:23.225Z,98145.09
2022-10-01T14:10:57.496Z,98153.94
2022-10-01T14:14:26.264Z,98152.50
2022-10-01T14:17:39.543Z,98150.78
2022-10-01T14:20:58.696Z,98155.56
2022-10-01T14:24:20.538Z,98164.09
2022-10-01T14:27:39.767Z,98169.97
2022-10-01T14:31:03.991Z,98170.03
2022-10-01T14:34:35.645Z,98176.50
2022-10-01T14:37:46.972Z,98179.28
2022-10-01T14:40:57.787Z,98171.50
2022-10-01T14:44:24.347Z,98169.88
2022-10-01T14:47:36.760Z,98177.44
2022-10-01T14:50:51.298Z,98180.47
2022-10-01T14:54:02.587Z,98181.06
2022-10-01T14:57:17.962Z,98175.63
2022-10-01T15:00:33.271Z,98178.59
2022-10-01T15:03:47.269Z,98184.19
2022-10-01T15:07:06.019Z,98189.19
2022-10-01T15:10:20.968Z,98176.91
2022-10-01T15:13:38.100Z,98185.63
2022-10-01T15:16:49.961Z,98187.63
2022-10-01T15:20:02.485Z,98188.44
2022-10-01T15:23:13.829Z,98203.63
2022-10-01T15:26:28.105Z,98201.03
2022-10-01T15:29:40.774Z,98214.19
2022-10-01T15:32:52.813Z,98223.47
2022-10-01T15:36:07.677Z,98231.31
2022-10-01T15:39:26.944Z,98246.34
2022-10-01T15:42:37.956Z,98233.13
2022-10-01T15:46:17.595Z,98229.88
2022-10-01T15:49:28.725Z,98233.41
2022-10-01T15:52:53.349Z,98243.34
2022-10-01T15:56:13.169Z,98244.88
2022-10-01T15:59:24.124Z,98249.06
2022-10-01T16:02:37.274Z,98250.69
2022-10-01T16:05:50.144Z,98251.00
2022-10-01T16:09:06.832Z,98261.94
2022-10-01T16:12:22.939Z,98266.38
2022-10-01T16:15:33.878Z,98278.16
2022-10-01T16:18:52.890Z,98296.13
2022-10-01T16:22:16.537Z,98297.75
2022-10-01T16:25:34.139Z,98308.59
2022-10-01T16:28:45.405Z,98306.66
2022-10-01T16:31:57.832Z,98320.53
2022-10-01T16:35:18.609Z,98327.84
2022-10-01T16:38:29.976Z,98330.41
2022-10-01T16:41:43.775Z,98336.25
2022-10-01T16:44:54.711Z,98336.31
2022-10-01T16:48:14.507Z,98331.31
2022-10-01T16:51:25.521Z,98328.81
2022-10-01T16:54:36.407Z,98338.03
2022-10-01T16:57:48.655Z,98359.34
2022-10-01T17:00:59.522Z,98360.94
2022-10-01T17:04:13.547Z,98352.06
2022-10-01T17:07:24.650Z,98356.59
2022-10-01T17:10:38.676Z,98360.38
2022-10-01T17:13:52.511Z,98355.53
2022-10-01T17:17:03.730Z,98377.97
2022-10-01T17:20:15.121Z,98375.31
2022-10-01T17:23:26.322Z,98385.63
2022-10-01T17:26:38.180Z,98393.38
2022-10-01T17:29:51.017Z,98388.94
2022-10-01T17:33:02.948Z,98403.06
2022-10-01T17:36:14.487Z,98406.63
2022-10-01T17:39:25.379Z,98419.34
2022-10-01T17:42:36.963Z,98428.91
2022-10-01T17:45:57.721Z,98427.91
2022-10-01T17:49:09.204Z,98446.16
2022-10-01T17:52:20.467Z,98460.78
2022-10-01T17:55:34.470Z,98469.59
2022-10-01T17:58:46.712Z,98472.81
2022-10-01T18:01:58.989Z,98474.75
2022-10-01T18:05:12.516Z,98500.59
2022-10-01T18:08:33.281Z,98521.88
2022-10-01T18:11:54.370Z,98515.94
2022-10-01T18:15:05.437Z,98523.59
2022-10-01T18:19:45.736Z,98514.88
2022-10-01T18:21:51.250Z,98516.31
2022-10-01T18:25:03.678Z,98526.63
2022-10-01T18:28:14.871Z,98521.09
2022-10-01T18:31:28.578Z,98523.06
2022-10-01T18:34:47.687Z,98534.72
2022-10-01T18:38:05.952Z,98531.97
2022-10-01T18:41:26.913Z,98536.25
2022-10-01T18:44:38.958Z,98537.88
2022-10-01T18:48:04.244Z,98554.94
2022-10-01T18:51:27.780Z,98569.56
2022-10-01T18:54:54.086Z,98575.44
2022-10-01T18:58:20.998Z,98594.91
2022-10-01T19:01:41.870Z,98600.50
2022-10-01T19:05:08.260Z,98597.56
2022-10-01T19:08:35.910Z,98602.47
2022-10-01T19:11:56.804Z,98607.63
2022-10-01T19:19:35.338Z,98612.22
2022-10-01T19:23:07.813Z,98624.47
2022-10-01T19:26:26.450Z,98631.22
2022-10-01T19:29:57.266Z,98631.44
2022-10-01T19:33:11.674Z,98626.88
2022-10-01T19:36:26.328Z,98637.97
2022-10-01T19:39:39.111Z,98627.22
2022-10-01T19:42:56.451Z,98636.94
2022-10-01T19:46:12.717Z,98638.75
2022-10-01T19:49:27.885Z,98651.00
2022-10-01T19:52:41.223Z,98659.38
2022-10-01T19:55:52.705Z,98666.47
2022-10-01T19:59:08.715Z,98663.28
2022-10-01T20:02:33.005Z,98674.59
2022-10-01T20:05:47.607Z,98680.75
2022-10-01T20:09:01.123Z,98680.75
2022-10-01T20:12:21.858Z,98685.75
2022-10-01T20:15:41.898Z,98690.69
2022-10-01T20:18:59.097Z,98696.06
2022-10-01T20:22:19.883Z,98700.66
2022-10-01T20:25:34.796Z,98713.97
2022-10-01T20:29:05.880Z,98714.16
2022-10-01T20:32:22.275Z,98716.63
2022-10-01T20:35:40.362Z,98721.59
2022-10-01T20:38:56.135Z,98724.06
2022-10-01T20:42:06.982Z,98725.66
2022-10-01T20:45:22.081Z,98738.97
2022-10-01T20:48:37.064Z,98740.78
2022-10-01T20:51:54.817Z,98739.88
2022-10-01T20:55:11.347Z,98732.81
2022-10-01T20:58:25.089Z,98739.97
2022-10-01T21:01:40.850Z,98740.47
2022-10-01T21:04:57.144Z,98748.53
2022-10-01T21:08:16.433Z,98749.63
2022-10-01T21:11:31.924Z,98759.22
2022-10-01T21:14:47.097Z,98762.41
2022-10-01T21:18:06.611Z,98765.97
2022-10-01T21:21:26.180Z,98769.16
2022-10-01T21:24:50.266Z,98769.69
2022-10-01T21:28:13.877Z,98777.44
2022-10-01T21:31:35.590Z,98786.16
2022-10-01T21:34:59.421Z,98793.91
2022-10-01T21:38:15.089Z,98800.97
2022-10-01T21:41:34.362Z,98799.06
2022-10-01T21:45:07.438Z,98802.78
2022-10-01T21:48:28.488Z,98815.56
2022-10-01T21:51:51.166Z,98818.63
2022-10-01T21:55:16.997Z,98819.91
2022-10-01T21:58:41.328Z,98831.34
2022-10-01T22:02:04.733Z,98837.38
2022-10-01T22:05:24.420Z,98835.41
2022-10-01T22:08:49.347Z,98832.63
2022-10-01T22:12:03.104Z,98842.06
2022-10-01T22:15:21.622Z,98846.31
